Time;durP1;ratioP1;P1;durP2;ratioP2;P2;SDS_P1;SDS_P2;PMS_P1;PMS_P2;Temp;Humidity;BMP_temperature;BMP_pressure;BME280_temperature;BME280_humidity;BME280_pressure;Samples;Min_cycle;Max_cycle;Signal;HPM_P1;HPM_P2
2024/01/29 00:00:17;;;;;;;16.77;7.78;;;;;;;4.34;100.00;102443.81;5290685;27;20043;-73
2024/01/29 00:02:47;;;;;;;12.30;6.95;;;;;;;4.28;100.00;102430.03;5292660;27;20073;-72
2024/01/29 00:05:18;;;;;;;14.32;6.93;;;;;;;4.09;100.00;102431.03;5298728;27;20019;-72
2024/01/29 00:07:48;;;;;;;15.32;7.05;;;;;;;3.95;100.00;102430.94;5294246;27;20358;-72
2024/01/29 00:10:21;;;;;;;13.20;6.30;;;;;;;3.92;100.00;102431.13;5291205;27;20024;-72
2024/01/29 00:12:52;;;;;;;15.50;6.70;;;;;;;3.94;100.00;102428.38;5287461;28;20159;-72
2024/01/29 00:15:22;;;;;;;12.57;6.78;;;;;;;3.95;100.00;102433.59;5294790;27;20027;-72
2024/01/29 00:17:53;;;;;;;14.85;6.78;;;;;;;4.06;100.00;102436.50;5290515;27;20064;-72
2024/01/29 00:20:23;;;;;;;14.80;6.68;;;;;;;4.23;100.00;102440.91;5290935;27;20034;-72
2024/01/29 00:22:54;;;;;;;13.82;6.45;;;;;;;4.37;100.00;102432.16;5292889;27;20027;-72
2024/01/29 00:25:25;;;;;;;11.07;5.68;;;;;;;4.44;100.00;102437.97;5294528;27;20452;-72
2024/01/29 00:27:56;;;;;;;13.85;6.30;;;;;;;4.55;100.00;102438.22;5291654;27;20023;-72
2024/01/29 00:30:27;;;;;;;11.43;6.47;;;;;;;4.59;100.00;102435.28;5293762;27;20084;-72
2024/01/29 00:32:57;;;;;;;16.15;6.57;;;;;;;4.53;100.00;102433.00;5293932;27;20024;-72
2024/01/29 00:35:28;;;;;;;11.85;5.93;;;;;;;4.45;100.00;102434.38;5295769;27;20026;-72
2024/01/29 00:37:58;;;;;;;12.63;6.47;;;;;;;4.45;100.00;102439.69;5292461;27;20031;-72
2024/01/29 00:40:31;;;;;;;12.48;6.30;;;;;;;4.52;100.00;102433.06;5287525;27;20022;-72
2024/01/29 00:43:01;;;;;;;14.45;5.70;;;;;;;4.47;100.00;102429.81;5296226;27;20050;-72
2024/01/29 00:45:32;;;;;;;15.07;6.60;;;;;;;4.35;100.00;102426.91;5287677;27;20028;-72
2024/01/29 00:48:03;;;;;;;12.02;6.70;;;;;;;4.33;100.00;102435.94;5286537;28;20023;-72
2024/01/29 00:50:33;;;;;;;15.50;5.65;;;;;;;4.28;100.00;102438.84;5289627;27;20031;-72
2024/01/29 00:53:05;;;;;;;11.38;5.43;;;;;;;4.27;100.00;102437.13;5296292;27;20019;-73
2024/01/29 00:55:36;;;;;;;11.75;5.97;;;;;;;4.32;100.00;102437.72;5290101;27;20421;-72
2024/01/29 00:58:06;;;;;;;12.82;6.18;;;;;;;4.27;100.00;102438.94;5295409;27;20015;-72
2024/01/29 01:00:38;;;;;;;12.02;6.05;;;;;;;4.31;100.00;102443.97;5289993;27;20530;-72
2024/01/29 01:03:09;;;;;;;15.48;6.32;;;;;;;4.37;100.00;102443.66;5296091;27;20056;-72
2024/01/29 01:05:40;;;;;;;11.63;5.78;;;;;;;4.35;100.00;102437.53;5290186;27;20690;-73
2024/01/29 01:08:10;;;;;;;11.50;5.95;;;;;;;4.36;100.00;102443.72;5292018;27;20105;-73
2024/01/29 01:10:41;;;;;;;13.75;6.13;;;;;;;4.36;100.00;102443.72;5292609;27;20024;-73
2024/01/29 01:13:11;;;;;;;12.98;6.38;;;;;;;4.35;100.00;102447.31;5292800;27;20030;-72
2024/01/29 01:15:42;;;;;;;11.95;5.78;;;;;;;4.34;100.00;102446.47;5292794;27;20041;-72
2024/01/29 01:18:12;;;;;;;15.10;6.32;;;;;;;4.41;100.00;102446.97;5287900;27;20068;-72
2024/01/29 01:20:43;;;;;;;15.45;5.40;;;;;;;4.51;100.00;102455.28;5288100;27;20107;-72
2024/01/29 01:23:13;;;;;;;9.82;5.45;;;;;;;4.40;100.00;102454.06;5294195;27;20437;-72
2024/01/29 01:25:44;;;;;;;11.98;5.20;;;;;;;4.35;100.00;102458.78;5289343;27;20039;-72
2024/01/29 01:28:14;;;;;;;12.85;5.60;;;;;;;4.37;100.00;102461.38;5294490;27;20026;-72
2024/01/29 01:30:45;;;;;;;10.15;4.88;;;;;;;4.23;100.00;102453.34;5288654;27;20047;-72
2024/01/29 01:33:15;;;;;;;14.20;5.50;;;;;;;4.24;100.00;102461.22;5289213;27;20026;-72
2024/01/29 01:35:46;;;;;;;11.65;5.43;;;;;;;4.19;100.00;102460.59;5288452;27;20745;-72
2024/01/29 01:38:17;;;;;;;10.23;5.43;;;;;;;4.09;100.00;102467.38;5293398;27;20023;-72
2024/01/29 01:40:47;;;;;;;13.35;6.20;;;;;;;4.01;100.00;102466.94;5289194;27;20204;-72
2024/01/29 01:43:20;;;;;;;11.55;5.60;;;;;;;3.93;100.00;102467.38;5290917;27;20138;-72
2024/01/29 01:46:17;;;;;;;11.05;5.55;;;;;;;3.83;100.00;102466.16;5286656;27;20025;-72
2024/01/29 01:48:53;;;;;;;13.45;6.13;;;;;;;3.76;100.00;102468.25;5282323;27;20419;-72
2024/01/29 01:51:23;;;;;;;9.40;5.70;;;;;;;3.71;100.00;102470.31;5290174;27;20059;-72
2024/01/29 01:53:57;;;;;;;11.85;5.65;;;;;;;3.57;100.00;102464.91;5286985;27;20685;-72
2024/01/29 01:56:28;;;;;;;12.25;5.40;;;;;;;3.42;100.00;102469.22;5289564;27;20391;-72
2024/01/29 01:59:03;;;;;;;13.65;6.30;;;;;;;3.28;100.00;102455.81;5287167;27;20769;-72
2024/01/29 02:01:33;;;;;;;15.63;7.25;;;;;;;3.26;100.00;102462.97;5287287;27;20028;-72
2024/01/29 02:04:05;;;;;;;13.07;5.22;;;;;;;3.19;100.00;102467.75;5286928;27;20726;-72
2024/01/29 02:06:35;;;;;;;11.13;5.40;;;;;;;3.24;100.00;102457.75;5287190;27;20069;-72
2024/01/29 02:09:07;;;;;;;14.60;6.25;;;;;;;3.25;100.00;102455.97;5281255;28;20016;-72
2024/01/29 02:11:38;;;;;;;12.82;5.95;;;;;;;3.35;100.00;102458.06;5288766;27;20415;-72
2024/01/29 02:14:08;;;;;;;15.20;5.97;;;;;;;3.46;100.00;102451.31;5281345;28;20037;-72
2024/01/29 02:16:39;;;;;;;13.00;6.00;;;;;;;3.66;100.00;102463.53;5285105;28;20492;-72
2024/01/29 02:19:16;;;;;;;11.90;5.65;;;;;;;3.91;100.00;102458.59;5286222;28;20109;-72
2024/01/29 02:21:49;;;;;;;13.02;5.63;;;;;;;4.11;100.00;102461.03;5281483;27;20066;-72
2024/01/29 02:24:19;;;;;;;12.95;6.00;;;;;;;4.24;100.00;102453.25;5285637;28;20110;-72
2024/01/29 02:26:50;;;;;;;12.00;5.53;;;;;;;4.40;100.00;102450.56;5284754;28;20107;-72
2024/01/29 02:29:21;;;;;;;11.18;5.03;;;;;;;4.47;100.00;102456.38;5287142;27;20116;-72
2024/01/29 02:31:51;;;;;;;11.57;5.13;;;;;;;4.56;100.00;102455.84;5287613;27;20388;-72
2024/01/29 02:34:22;;;;;;;12.68;5.65;;;;;;;4.62;100.00;102460.84;5285143;28;20027;-72
2024/01/29 02:36:52;;;;;;;11.75;5.68;;;;;;;4.80;100.00;102469.53;5286820;27;20675;-72
2024/01/29 02:39:22;;;;;;;10.18;5.32;;;;;;;4.91;100.00;102467.97;5284576;28;20024;-72
2024/01/29 02:41:53;;;;;;;13.77;6.57;;;;;;;4.99;100.00;102472.00;5285388;28;20106;-72
2024/01/29 02:44:23;;;;;;;13.65;5.13;;;;;;;5.16;100.00;102466.50;5284904;28;20657;-72
2024/01/29 02:46:54;;;;;;;13.20;5.53;;;;;;;5.29;100.00;102469.31;5283953;27;20034;-72
2024/01/29 02:49:24;;;;;;;11.70;5.72;;;;;;;5.41;100.00;102471.22;5286044;27;20469;-72
2024/01/29 02:51:55;;;;;;;17.27;6.38;;;;;;;5.46;100.00;102471.78;5285851;28;20050;-72
2024/01/29 02:54:26;;;;;;;13.90;6.50;;;;;;;5.58;100.00;102473.72;5288246;27;20480;-72
2024/01/29 02:56:56;;;;;;;13.43;6.40;;;;;;;5.59;100.00;102458.59;5284138;28;20047;-72
2024/01/29 02:59:27;;;;;;;9.13;5.22;;;;;;;5.74;100.00;102462.13;5284971;28;20020;-72
2024/01/29 03:01:58;;;;;;;12.30;4.85;;;;;;;5.70;100.00;102458.78;5282589;28;20102;-72
2024/01/29 03:04:33;;;;;;;12.63;5.07;;;;;;;5.66;100.00;102459.91;5287165;28;20027;-72
2024/01/29 03:07:17;;;;;;;14.55;5.00;;;;;;;5.54;100.00;102447.38;5279747;27;20023;-71
2024/01/29 03:09:48;;;;;;;8.73;4.03;;;;;;;5.48;100.00;102455.75;5289219;28;20408;-71
2024/01/29 03:12:18;;;;;;;14.90;5.90;;;;;;;5.48;100.00;102461.91;5285804;27;20056;-71
2024/01/29 03:14:50;;;;;;;10.93;4.90;;;;;;;5.48;100.00;102461.06;5284445;28;21316;-71
2024/01/29 03:17:20;;;;;;;8.40;4.32;;;;;;;5.44;100.00;102455.06;5289725;27;20036;-71
2024/01/29 03:19:51;;;;;;;8.80;5.20;;;;;;;5.36;100.00;102465.31;5285336;28;20084;-71
2024/01/29 03:22:22;;;;;;;10.15;4.78;;;;;;;5.30;100.00;102455.03;5292502;27;20473;-71
2024/01/29 03:24:53;;;;;;;13.25;4.80;;;;;;;5.19;100.00;102461.03;5288894;28;20400;-71
2024/01/29 03:27:24;;;;;;;9.75;4.90;;;;;;;5.24;100.00;102468.72;5290355;27;20042;-71
2024/01/29 03:29:54;;;;;;;11.45;5.45;;;;;;;5.29;100.00;102467.50;5288440;27;20107;-71
2024/01/29 03:32:25;;;;;;;8.43;4.55;;;;;;;5.28;100.00;102475.59;5288590;28;20492;-71
2024/01/29 03:34:56;;;;;;;9.13;4.38;;;;;;;5.24;100.00;102476.72;5291509;27;20028;-71
2024/01/29 03:37:27;;;;;;;10.57;4.57;;;;;;;5.20;100.00;102474.22;5292926;27;20102;-71
2024/01/29 03:39:57;;;;;;;9.00;4.43;;;;;;;5.05;100.00;102477.78;5291041;27;20473;-71
2024/01/29 03:42:28;;;;;;;12.98;4.82;;;;;;;4.93;100.00;102476.72;5291340;27;20077;-71
2024/01/29 03:44:58;;;;;;;14.27;5.07;;;;;;;4.89;100.00;102469.88;5290556;27;20532;-71
2024/01/29 03:47:29;;;;;;;12.38;5.93;;;;;;;4.80;100.00;102477.53;5289645;27;20019;-71
2024/01/29 03:49:59;;;;;;;10.52;4.55;;;;;;;4.81;100.00;102482.75;5290109;27;20110;-71
2024/01/29 03:52:30;;;;;;;11.57;4.78;;;;;;;4.75;100.00;102474.28;5289862;27;20023;-71
2024/01/29 03:55:00;;;;;;;10.95;4.80;;;;;;;4.70;100.00;102481.66;5291769;27;20053;-71
2024/01/29 03:57:31;;;;;;;10.35;4.72;;;;;;;4.66;100.00;102479.16;5287981;27;20099;-71
2024/01/29 04:00:02;;;;;;;9.23;4.57;;;;;;;4.62;100.00;102480.31;5286363;27;20019;-70
2024/01/29 04:02:32;;;;;;;10.10;4.82;;;;;;;4.60;100.00;102481.31;5288388;27;20032;-71
2024/01/29 04:05:03;;;;;;;8.90;4.22;;;;;;;4.63;100.00;102486.47;5289480;27;20042;-71
2024/01/29 04:07:33;;;;;;;13.55;4.50;;;;;;;4.62;100.00;102482.13;5291300;27;20027;-71
2024/01/29 04:10:05;;;;;;;13.18;4.53;;;;;;;4.61;100.00;102486.53;5289254;27;20080;-71
2024/01/29 04:12:35;;;;;;;10.50;4.45;;;;;;;4.57;100.00;102494.81;5283264;27;20039;-71
2024/01/29 04:15:06;;;;;;;14.15;5.18;;;;;;;4.53;100.00;102491.47;5281308;27;20041;-71
2024/01/29 04:17:36;;;;;;;12.15;4.65;;;;;;;4.41;100.00;102494.78;5289031;27;20102;-71
2024/01/29 04:20:07;;;;;;;14.27;5.18;;;;;;;4.33;100.00;102497.91;5292316;27;20053;-71
2024/01/29 04:22:38;;;;;;;10.65;4.80;;;;;;;4.36;100.00;102503.03;5290288;27;20157;-71
2024/01/29 04:25:08;;;;;;;12.20;5.45;;;;;;;4.34;100.00;102499.59;5287270;27;20035;-71
2024/01/29 04:27:39;;;;;;;9.45;4.60;;;;;;;4.37;100.00;102493.28;5289434;27;20034;-71
2024/01/29 04:30:10;;;;;;;9.30;4.60;;;;;;;4.35;100.00;102495.16;5290400;27;20024;-71
2024/01/29 04:32:40;;;;;;;10.32;4.85;;;;;;;4.20;100.00;102498.66;5289277;27;20019;-71
2024/01/29 04:35:11;;;;;;;10.40;5.38;;;;;;;4.17;100.00;102497.03;5287660;27;20420;-71
2024/01/29 04:37:41;;;;;;;11.63;5.22;;;;;;;4.16;100.00;102492.66;5290351;27;20034;-71
2024/01/29 04:40:12;;;;;;;10.07;4.93;;;;;;;4.06;100.00;102492.28;5290245;27;20026;-71
2024/01/29 04:42:42;;;;;;;10.95;5.05;;;;;;;4.05;100.00;102487.06;5287215;28;20050;-71
2024/01/29 04:45:13;;;;;;;10.48;4.53;;;;;;;3.98;100.00;102491.00;5288944;27;20058;-71
2024/01/29 04:47:43;;;;;;;12.10;5.60;;;;;;;3.98;100.00;102491.00;5289869;27;20160;-71
2024/01/29 04:50:14;;;;;;;11.10;6.00;;;;;;;3.89;100.00;102487.91;5289915;27;20111;-71
2024/01/29 04:52:44;;;;;;;11.52;4.90;;;;;;;3.90;100.00;102494.06;5288661;27;20042;-71
2024/01/29 04:55:15;;;;;;;13.48;4.85;;;;;;;3.97;100.00;102499.94;5291420;27;20494;-71
2024/01/29 04:57:46;;;;;;;10.90;4.57;;;;;;;4.08;100.00;102508.16;5288064;27;20580;-71
2024/01/29 05:00:16;;;;;;;10.95;4.90;;;;;;;4.12;100.00;102513.22;5289296;27;20076;-71
2024/01/29 05:02:47;;;;;;;8.70;4.47;;;;;;;4.09;100.00;102505.41;5289940;27;20027;-71
2024/01/29 05:05:18;;;;;;;11.27;5.32;;;;;;;4.02;100.00;102500.53;5289206;27;20015;-71
2024/01/29 05:07:48;;;;;;;12.32;5.05;;;;;;;3.91;100.00;102509.06;5286765;28;20048;-71
2024/01/29 05:10:20;;;;;;;10.05;4.88;;;;;;;3.85;100.00;102499.63;5286444;27;20039;-71
2024/01/29 05:12:50;;;;;;;12.15;4.57;;;;;;;3.76;100.00;102507.22;5286989;28;20036;-71
2024/01/29 05:15:21;;;;;;;12.80;5.25;;;;;;;3.74;100.00;102509.97;5286548;28;20370;-71
2024/01/29 05:17:51;;;;;;;13.40;4.93;;;;;;;3.75;100.00;102510.81;5287290;27;20024;-71
2024/01/29 05:20:22;;;;;;;13.95;5.20;;;;;;;3.67;100.00;102511.25;5283090;27;20354;-71
2024/01/29 05:22:52;;;;;;;9.98;5.25;;;;;;;3.67;100.00;102515.69;5289253;27;20055;-71
2024/01/29 05:25:23;;;;;;;17.67;6.00;;;;;;;3.63;100.00;102513.19;5289925;27;20031;-71
2024/01/29 05:27:53;;;;;;;9.48;4.72;;;;;;;3.60;100.00;102517.81;5287187;27;20031;-71
2024/01/29 05:30:24;;;;;;;12.25;4.38;;;;;;;3.54;100.00;102515.47;5286757;27;20541;-71
2024/01/29 05:32:54;;;;;;;8.52;4.95;;;;;;;3.54;100.00;102510.16;5287715;27;20054;-71
2024/01/29 05:35:25;;;;;;;15.32;4.80;;;;;;;3.57;100.00;102517.97;5287232;27;20051;-71
2024/01/29 05:37:55;;;;;;;17.63;5.20;;;;;;;3.52;100.00;102504.94;5287167;27;20027;-71
2024/01/29 05:40:26;;;;;;;9.63;5.43;;;;;;;3.50;100.00;102513.91;5286896;27;20091;-71
2024/01/29 05:42:56;;;;;;;13.32;6.45;;;;;;;3.53;100.00;102521.72;5287352;27;20118;-71
2024/01/29 05:45:27;;;;;;;11.15;5.18;;;;;;;3.51;100.00;102508.50;5286357;27;20035;-71
2024/01/29 05:47:57;;;;;;;11.35;5.00;;;;;;;3.44;100.00;102509.78;5286410;27;20031;-71
2024/01/29 05:50:28;;;;;;;16.00;5.30;;;;;;;3.48;100.00;102507.84;5285296;28;20024;-71
2024/01/29 05:52:58;;;;;;;12.82;5.28;;;;;;;3.45;100.00;102524.75;5286893;27;20027;-71
2024/01/29 05:55:29;;;;;;;13.13;5.72;;;;;;;3.50;100.00;102522.72;5286767;27;20115;-71
2024/01/29 05:57:59;;;;;;;12.77;5.07;;;;;;;3.45;100.00;102519.44;5285874;27;20103;-71
2024/01/29 06:00:29;;;;;;;11.18;4.65;;;;;;;3.49;100.00;102528.13;5285943;28;20020;-71
2024/01/29 06:03:00;;;;;;;11.15;4.95;;;;;;;3.54;100.00;102523.44;5279979;28;20020;-71
2024/01/29 06:05:30;;;;;;;14.18;6.55;;;;;;;3.56;100.00;102521.53;5272747;28;20030;-70
2024/01/29 06:08:01;;;;;;;10.25;5.18;;;;;;;3.57;100.00;102533.91;5272217;28;20055;-70
2024/01/29 06:10:31;;;;;;;11.85;5.50;;;;;;;3.55;100.00;102531.31;5285770;27;20034;-71
2024/01/29 06:13:02;;;;;;;14.55;6.10;;;;;;;3.47;100.00;102540.63;5285777;27;20080;-70
2024/01/29 06:15:32;;;;;;;12.23;5.13;;;;;;;3.37;100.00;102538.44;5281635;27;20026;-71
2024/01/29 06:18:04;;;;;;;11.65;5.85;;;;;;;3.36;100.00;102541.16;5277402;28;20106;-71
2024/01/29 06:20:35;;;;;;;12.48;5.65;;;;;;;3.32;100.00;102540.47;5283947;27;20376;-71
2024/01/29 06:23:06;;;;;;;11.85;6.40;;;;;;;3.26;100.00;102546.09;5280537;28;20023;-73
2024/01/29 06:25:36;;;;;;;12.35;5.82;;;;;;;3.20;100.00;102546.38;5285334;28;20110;-71
2024/01/29 06:28:07;;;;;;;11.05;6.45;;;;;;;3.18;100.00;102547.41;5284971;28;20027;-70
2024/01/29 06:30:37;;;;;;;13.80;6.18;;;;;;;3.21;100.00;102542.78;5285179;28;20144;-71
2024/01/29 06:33:08;;;;;;;13.18;6.10;;;;;;;3.24;100.00;102547.94;5284947;28;20080;-71
2024/01/29 06:35:38;;;;;;;13.13;5.70;;;;;;;3.25;100.00;102554.97;5285726;28;20043;-70
2024/01/29 06:38:09;;;;;;;15.27;6.35;;;;;;;3.31;100.00;102549.38;5284814;28;20019;-71
2024/01/29 06:40:39;;;;;;;13.93;6.18;;;;;;;3.34;100.00;102551.00;5284966;28;20027;-71
2024/01/29 06:43:10;;;;;;;11.60;5.82;;;;;;;3.24;100.00;102539.97;5285011;28;20575;-71
2024/01/29 06:45:40;;;;;;;13.27;6.00;;;;;;;3.16;100.00;102536.00;5285393;28;20030;-71
2024/01/29 06:48:11;;;;;;;14.30;6.30;;;;;;;3.08;100.00;102549.66;5283741;28;20023;-71
2024/01/29 06:50:41;;;;;;;12.63;5.85;;;;;;;3.06;100.00;102544.44;5285221;27;20048;-71
2024/01/29 06:53:12;;;;;;;14.57;6.35;;;;;;;3.14;100.00;102553.78;5285119;28;20027;-71
2024/01/29 06:55:42;;;;;;;15.60;7.28;;;;;;;3.28;100.00;102559.25;5285353;28;20032;-71
2024/01/29 06:58:13;;;;;;;14.48;6.75;;;;;;;3.43;100.00;102560.28;5284070;28;20102;-71
2024/01/29 07:00:43;;;;;;;17.83;6.90;;;;;;;3.40;100.00;102565.72;5285037;28;20027;-71
2024/01/29 07:03:15;;;;;;;14.73;6.10;;;;;;;3.30;100.00;102560.03;5286654;28;20019;-71
2024/01/29 07:05:48;;;;;;;16.17;6.50;;;;;;;3.27;100.00;102562.84;5278511;28;20031;-71
2024/01/29 07:08:18;;;;;;;12.93;5.75;;;;;;;3.17;100.00;102567.75;5285751;28;20024;-71
2024/01/29 07:10:49;;;;;;;16.63;7.45;;;;;;;3.19;100.00;102575.63;5288294;28;20396;-71
2024/01/29 07:13:19;;;;;;;14.63;6.07;;;;;;;3.21;100.00;102579.06;5287869;28;20028;-71
2024/01/29 07:15:50;;;;;;;16.67;6.20;;;;;;;3.18;100.00;102579.22;5283878;28;20024;-71
2024/01/29 07:18:22;;;;;;;13.35;6.38;;;;;;;3.05;100.00;102584.25;5286750;28;20019;-71
2024/01/29 07:20:52;;;;;;;13.88;6.32;;;;;;;3.00;100.00;102592.44;5281257;28;20024;-71
2024/01/29 07:23:23;;;;;;;15.95;6.22;;;;;;;2.92;100.00;102591.13;5285953;28;20088;-71
2024/01/29 07:25:53;;;;;;;14.15;6.30;;;;;;;2.85;100.00;102593.19;5285223;28;20023;-71
2024/01/29 07:28:24;;;;;;;12.35;5.75;;;;;;;2.83;100.00;102600.38;5288486;27;20063;-71
2024/01/29 07:30:55;;;;;;;11.95;6.00;;;;;;;2.84;100.00;102604.72;5287347;28;20062;-71
2024/01/29 07:33:25;;;;;;;12.20;6.18;;;;;;;2.83;100.00;102611.81;5288725;28;20031;-71
2024/01/29 07:35:56;;;;;;;13.77;6.35;;;;;;;2.89;100.00;102615.13;5285442;28;20536;-71
2024/01/29 07:38:26;;;;;;;15.07;6.43;;;;;;;2.90;100.00;102606.22;5288216;28;20026;-71
2024/01/29 07:40:57;;;;;;;11.68;6.05;;;;;;;2.96;100.00;102608.56;5286217;28;20027;-71
2024/01/29 07:43:27;;;;;;;20.23;7.68;;;;;;;3.04;100.00;102619.69;5285918;28;20024;-71
2024/01/29 07:45:57;;;;;;;17.25;6.55;;;;;;;3.03;100.00;102617.97;5286132;28;20063;-71
2024/01/29 07:48:28;;;;;;;22.65;7.22;;;;;;;3.17;100.00;102620.81;5284894;28;20019;-71
2024/01/29 07:50:58;;;;;;;17.17;7.22;;;;;;;3.28;100.00;102620.28;5287415;28;20031;-71
2024/01/29 07:53:29;;;;;;;20.75;7.07;;;;;;;3.40;100.00;102619.66;5287078;28;20054;-71
2024/01/29 07:55:59;;;;;;;13.50;6.53;;;;;;;3.40;100.00;102614.34;5278781;28;20023;-71
2024/01/29 07:58:30;;;;;;;13.73;6.20;;;;;;;3.47;100.00;102622.88;5282452;28;20473;-71
2024/01/29 08:01:01;;;;;;;13.65;6.65;;;;;;;3.48;100.00;102621.94;5280080;27;20453;-71
2024/01/29 08:03:31;;;;;;;13.70;6.82;;;;;;;3.52;100.00;102618.19;5279925;27;20020;-71
2024/01/29 08:06:02;;;;;;;15.00;6.57;;;;;;;3.55;100.00;102621.53;5277944;28;20028;-71
2024/01/29 08:08:36;;;;;;;11.57;5.63;;;;;;;3.63;100.00;102619.38;5289769;27;20366;-71
2024/01/29 08:11:06;;;;;;;15.27;6.32;;;;;;;3.78;100.00;102631.00;5287662;27;20032;-71
2024/01/29 08:13:37;;;;;;;13.68;6.25;;;;;;;3.92;100.00;102630.28;5288152;27;20023;-71
2024/01/29 08:16:07;;;;;;;16.70;5.97;;;;;;;4.11;100.00;102625.69;5289870;27;20024;-71
2024/01/29 08:18:38;;;;;;;11.93;6.15;;;;;;;4.24;100.00;102625.06;5287715;27;20027;-71
2024/01/29 08:21:08;;;;;;;14.63;5.47;;;;;;;4.40;100.00;102626.81;5290476;27;20388;-71
2024/01/29 08:23:38;;;;;;;12.43;6.07;;;;;;;4.58;100.00;102627.63;5289753;27;20024;-71
2024/01/29 08:26:09;;;;;;;10.00;5.15;;;;;;;4.80;100.00;102624.63;5289976;27;20028;-71
2024/01/29 08:28:40;;;;;;;17.65;5.47;;;;;;;5.05;100.00;102621.44;5287409;28;20538;-71
2024/01/29 08:31:10;;;;;;;11.75;5.72;;;;;;;5.17;100.00;102620.75;5287764;27;20024;-72
2024/01/29 08:33:42;;;;;;;13.18;6.18;;;;;;;5.37;100.00;102616.06;5288498;27;20053;-71
2024/01/29 08:36:14;;;;;;;12.57;6.60;;;;;;;5.52;100.00;102608.97;5289176;27;20035;-71
2024/01/29 08:38:44;;;;;;;14.50;6.25;;;;;;;5.70;100.00;102611.41;5287560;27;20055;-71
2024/01/29 08:41:15;;;;;;;12.38;6.10;;;;;;;5.81;100.00;102602.78;5289370;27;20442;-71
2024/01/29 08:43:45;;;;;;;11.23;5.85;;;;;;;6.04;100.00;102600.56;5288760;27;20023;-72
2024/01/29 08:46:16;;;;;;;14.80;6.00;;;;;;;6.28;100.00;102596.41;5288888;27;20106;-71
2024/01/29 08:48:46;;;;;;;10.40;5.70;;;;;;;6.49;100.00;102597.72;5286830;27;20107;-71
2024/01/29 08:51:17;;;;;;;10.70;6.15;;;;;;;6.66;100.00;102595.78;5287332;27;20028;-72
2024/01/29 08:53:47;;;;;;;12.57;6.00;;;;;;;6.69;100.00;102600.91;5289429;27;20485;-71
2024/01/29 08:56:18;;;;;;;12.48;5.93;;;;;;;6.80;100.00;102609.09;5281252;27;20024;-72
2024/01/29 08:58:48;;;;;;;11.20;6.07;;;;;;;6.95;100.00;102604.56;5286789;28;20092;-72
2024/01/29 09:01:19;;;;;;;13.75;6.10;;;;;;;7.23;100.00;102596.47;5288728;27;20485;-72
2024/01/29 09:03:49;;;;;;;10.07;6.15;;;;;;;7.39;100.00;102593.63;5281081;28;20059;-72
2024/01/29 09:06:20;;;;;;;11.55;6.93;;;;;;;7.66;100.00;102595.38;5286963;28;20130;-72
2024/01/29 09:08:50;;;;;;;11.65;6.07;;;;;;;7.92;100.00;102594.44;5286351;27;20031;-72
2024/01/29 09:11:21;;;;;;;11.13;6.07;;;;;;;8.12;100.00;102601.06;5287659;27;20604;-72
2024/01/29 09:13:51;;;;;;;11.80;6.75;;;;;;;8.40;100.00;102605.34;5287444;27;20035;-72
2024/01/29 09:16:22;;;;;;;13.27;6.45;;;;;;;8.69;100.00;102602.41;5287168;28;20023;-72
2024/01/29 09:18:52;;;;;;;15.57;8.38;;;;;;;8.77;100.00;102606.22;5282081;27;20035;-72
2024/01/29 09:21:23;;;;;;;14.77;8.60;;;;;;;9.00;100.00;102609.91;5285635;27;20034;-72
2024/01/29 09:23:53;;;;;;;12.90;6.82;;;;;;;9.15;100.00;102607.91;5289288;27;20034;-72
2024/01/29 09:26:24;;;;;;;13.70;6.00;;;;;;;9.41;100.00;102611.31;5287603;27;20035;-72
2024/01/29 09:28:54;;;;;;;14.63;6.70;;;;;;;9.71;100.00;102620.69;5285807;28;20484;-72
2024/01/29 09:31:25;;;;;;;11.40;6.28;;;;;;;10.00;100.00;102619.28;5273280;27;20378;-72
2024/01/29 09:33:55;;;;;;;10.32;6.05;;;;;;;10.41;100.00;102630.44;5282805;27;20048;-72
2024/01/29 09:36:26;;;;;;;12.23;6.50;;;;;;;10.63;100.00;102631.28;5287336;27;20035;-72
2024/01/29 09:38:56;;;;;;;15.15;7.00;;;;;;;11.02;100.00;102634.41;5286293;27;20024;-72
2024/01/29 09:41:33;;;;;;;12.10;6.65;;;;;;;10.90;100.00;102635.41;5287498;27;20102;-72
2024/01/29 09:44:06;;;;;;;11.68;5.75;;;;;;;11.16;100.00;102630.59;5287066;28;20023;-72
2024/01/29 09:46:39;;;;;;;9.85;6.38;;;;;;;11.08;100.00;102644.63;5286492;27;20092;-73
2024/01/29 09:49:10;;;;;;;11.82;6.18;;;;;;;11.02;100.00;102631.72;5286447;27;20053;-72
2024/01/29 09:51:46;;;;;;;12.02;6.70;;;;;;;11.50;100.00;102638.53;5279414;28;20403;-73
2024/01/29 09:54:16;;;;;;;10.13;6.68;;;;;;;11.32;100.00;102641.75;5285737;28;20027;-73
2024/01/29 09:56:47;;;;;;;14.68;6.30;;;;;;;11.15;100.00;102639.63;5279008;28;20041;-73
2024/01/29 09:59:18;;;;;;;13.88;7.13;;;;;;;11.32;100.00;102638.22;5279474;27;20028;-72
2024/01/29 10:01:49;;;;;;;12.88;6.78;;;;;;;11.41;100.00;102638.31;5287302;27;20505;-72
2024/01/29 10:04:21;;;;;;;11.93;6.68;;;;;;;11.58;100.00;102638.72;5281431;28;20068;-72
2024/01/29 10:06:52;;;;;;;12.75;7.03;;;;;;;11.59;100.00;102635.91;5278450;28;20039;-73
2024/01/29 10:09:22;;;;;;;12.82;6.72;;;;;;;11.80;100.00;102637.78;5281834;28;20028;-73
2024/01/29 10:11:53;;;;;;;11.50;6.93;;;;;;;11.97;100.00;102639.03;5280366;27;20024;-73
2024/01/29 10:14:23;;;;;;;10.23;6.03;;;;;;;11.80;100.00;102635.09;5284483;28;20384;-73
2024/01/29 10:16:54;;;;;;;10.52;6.38;;;;;;;11.76;100.00;102641.72;5285426;28;20023;-73
2024/01/29 10:19:24;;;;;;;14.38;6.50;;;;;;;11.61;100.00;102638.47;5284982;28;20118;-73
2024/01/29 10:21:54;;;;;;;11.98;6.70;;;;;;;11.47;100.00;102645.00;5285126;28;20024;-73
2024/01/29 10:24:25;;;;;;;13.25;6.97;;;;;;;11.54;100.00;102643.50;5284856;28;20031;-73
2024/01/29 10:27:05;;;;;;;11.40;6.10;;;;;;;11.62;100.00;102650.94;5284590;28;20035;-73
2024/01/29 10:29:49;;;;;;;15.98;7.88;;;;;;;11.52;100.00;102645.47;5283603;28;21397;-73
2024/01/29 10:32:21;;;;;;;15.25;7.70;;;;;;;11.65;100.00;102645.31;5284964;28;20366;-73
2024/01/29 10:34:51;;;;;;;16.15;8.20;;;;;;;11.79;100.00;102642.28;5285507;28;20031;-73
2024/01/29 10:37:25;;;;;;;14.13;7.15;;;;;;;11.93;100.00;102646.50;5284181;28;20206;-73
2024/01/29 10:40:00;;;;;;;15.40;7.68;;;;;;;11.91;100.00;102652.03;5285215;28;20031;-73
2024/01/29 10:42:31;;;;;;;13.90;7.38;;;;;;;12.00;100.00;102642.34;5284516;28;20038;-75
2024/01/29 10:45:02;;;;;;;14.48;7.07;;;;;;;11.92;100.00;102642.97;5285345;28;20035;-73
2024/01/29 10:47:38;;;;;;;13.35;6.88;;;;;;;12.09;100.00;102649.59;5283966;28;20035;-73
2024/01/29 10:50:10;;;;;;;13.05;7.20;;;;;;;12.34;100.00;102645.63;5284811;27;20020;-73
2024/01/29 10:52:41;;;;;;;10.20;6.13;;;;;;;12.39;100.00;102647.91;5285052;28;20495;-73
2024/01/29 10:55:13;;;;;;;14.10;6.88;;;;;;;12.42;100.00;102644.97;5285159;28;20073;-73
2024/01/29 10:57:46;;;;;;;11.93;6.53;;;;;;;12.38;100.00;102643.53;5283702;28;20091;-74
2024/01/29 11:00:18;;;;;;;13.15;6.80;;;;;;;12.24;100.00;102636.66;5284280;28;20024;-73
2024/01/29 11:02:49;;;;;;;11.07;6.72;;;;;;;12.33;100.00;102641.22;5277997;28;20028;-73
2024/01/29 11:05:20;;;;;;;10.73;6.05;;;;;;;12.26;100.00;102636.53;5292319;28;20396;-73
2024/01/29 11:07:55;;;;;;;12.48;7.20;;;;;;;12.40;100.00;102639.72;5302195;27;20485;-73
2024/01/29 11:10:29;;;;;;;12.88;7.00;;;;;;;12.46;100.00;102645.56;5291578;27;20106;-73
2024/01/29 11:13:02;;;;;;;11.13;7.00;;;;;;;12.50;100.00;102631.69;5296448;27;20027;-73
2024/01/29 11:15:33;;;;;;;13.07;6.50;;;;;;;12.76;100.00;102634.75;5297749;28;20110;-73
2024/01/29 11:18:04;;;;;;;14.90;6.85;;;;;;;12.90;100.00;102625.41;5290996;28;20442;-73
2024/01/29 11:20:38;;;;;;;11.27;6.80;;;;;;;12.92;100.00;102626.16;5289170;28;20106;-73
2024/01/29 11:23:10;;;;;;;12.98;7.60;;;;;;;12.88;100.00;102622.03;5298131;28;20111;-73
2024/01/29 11:25:40;;;;;;;13.68;7.15;;;;;;;12.89;100.00;102624.56;5294350;28;20031;-73
2024/01/29 11:28:11;;;;;;;14.07;7.85;;;;;;;12.99;100.00;102624.59;5301647;27;20103;-73
2024/01/29 11:30:49;;;;;;;14.07;8.13;;;;;;;12.99;100.00;102627.28;5292997;27;20030;-73
2024/01/29 11:33:20;;;;;;;11.80;7.32;;;;;;;12.86;100.00;102611.38;5298593;27;20107;-73